Time;durP1;ratioP1;P1;durP2;ratioP2;P2;SDS_P1;SDS_P2;PMS_P1;PMS_P2;Temp;Humidity;BMP_temperature;BMP_pressure;BME280_temperature;BME280_humidity;BME280_pressure;Samples;Min_cycle;Max_cycle;Signal;HPM_P1;HPM_P2
2022/06/04 00:01:32;;;;;;;;;37.50;31.50;;;;;18.19;100.00;101140.88;6317787;22;45271;-86
2022/06/04 00:03:57;;;;;;;;;38.25;33.25;;;;;18.16;100.00;101151.06;6316829;22;45319;-86
2022/06/04 00:06:23;;;;;;;;;38.25;31.00;;;;;18.12;100.00;101141.59;6321474;22;44712;-87
2022/06/04 00:08:48;;;;;;;;;34.00;32.75;;;;;18.13;100.00;101143.28;6316648;22;44749;-86
2022/06/04 00:16:42;;;;;;;;;40.25;34.75;;;;;18.09;100.00;101125.75;6324880;22;44747;-85
2022/06/04 00:19:07;;;;;;;;;35.00;33.25;;;;;18.08;100.00;101135.63;6322001;22;45225;-84
2022/06/04 00:21:32;;;;;;;;;31.75;27.25;;;;;18.08;100.00;101134.78;6294579;22;44924;-86
2022/06/04 00:23:58;;;;;;;;;33.50;32.50;;;;;18.06;100.00;101131.41;6311954;22;45152;-86
2022/06/04 00:26:24;;;;;;;;;28.25;28.25;;;;;18.01;100.00;101121.06;6309796;22;44751;-91
2022/06/04 00:28:50;;;;;;;;;30.75;26.00;;;;;18.03;100.00;101135.22;6310683;22;44618;-88
2022/06/04 00:31:18;;;;;;;;;29.75;29.75;;;;;18.00;100.00;101132.81;6307106;22;45595;-85
2022/06/04 00:33:44;;;;;;;;;24.50;24.50;;;;;17.97;100.00;101135.78;6281593;22;46596;-86
2022/06/04 00:36:10;;;;;;;;;32.25;32.00;;;;;17.94;100.00;101125.31;6310103;22;44871;-87
2022/06/04 00:38:35;;;;;;;;;29.25;26.50;;;;;17.96;100.00;101136.78;6305050;22;44701;-86
2022/06/04 00:41:26;;;;;;;;;35.25;33.75;;;;;17.94;100.00;101136.94;6310141;22;44764;-87
2022/06/04 00:44:24;;;;;;;;;27.50;26.75;;;;;17.91;100.00;101125.59;6314360;22;45904;-85
2022/06/04 00:46:56;;;;;;;;;34.00;30.25;;;;;17.89;100.00;101125.75;6292445;22;44895;-85
2022/06/04 00:49:21;;;;;;;;;32.25;32.00;;;;;17.91;100.00;101120.22;6282476;22;44704;-87
2022/06/04 00:51:49;;;;;;;;;29.25;29.25;;;;;17.93;100.00;101128.97;6308871;22;45168;-86
2022/06/04 00:54:16;;;;;;;;;36.50;32.75;;;;;17.91;100.00;101110.31;6311168;22;45047;-87
2022/06/04 00:56:51;;;;;;;;;33.75;30.75;;;;;17.92;100.00;101114.69;6311412;22;44698;-86
2022/06/04 00:59:26;;;;;;;;;29.75;28.00;;;;;17.90;100.00;101113.16;6280908;22;45434;-86
2022/06/04 01:02:01;;;;;;;;;34.25;33.00;;;;;17.91;100.00;101109.47;6280138;22;45239;-86
2022/06/04 01:04:49;;;;;;;;;33.50;31.50;;;;;17.88;100.00;101102.53;6309913;22;45451;-88
2022/06/04 01:07:52;;;;;;;;;34.25;30.50;;;;;17.86;100.00;101100.97;6312902;22;44708;-85
2022/06/04 01:10:47;;;;;;;;;31.25;31.25;;;;;17.83;100.00;101099.41;6318400;22;45181;-84
2022/06/04 01:13:20;;;;;;;;;37.25;31.00;;;;;17.79;100.00;101095.31;6318654;22;45344;-84
2022/06/04 01:15:57;;;;;;;;;39.00;36.67;;;;;17.73;100.00;101091.34;6320017;22;45121;-88
2022/06/04 01:18:50;;;;;;;;;37.25;32.50;;;;;17.75;100.00;101096.59;6319911;22;44848;-89
2022/06/04 01:21:24;;;;;;;;;35.75;34.75;;;;;17.74;100.00;101100.25;6293679;22;45374;-86
2022/06/04 01:24:23;;;;;;;;;35.75;31.75;;;;;17.73;100.00;101095.88;6322008;22;44789;-86
2022/06/04 01:27:15;;;;;;;;;39.75;35.75;;;;;17.69;100.00;101084.50;6193815;23;47109;-85
2022/06/04 01:29:50;;;;;;;;;39.25;35.50;;;;;17.69;100.00;101084.50;6163164;23;45414;-87
2022/06/04 01:32:42;;;;;;;;;36.00;33.00;;;;;17.67;100.00;101072.22;6163810;23;44907;-90
2022/06/04 01:35:18;;;;;;;;;39.25;34.50;;;;;17.65;100.00;101071.53;6194314;22;44884;-88
2022/06/04 01:37:55;;;;;;;;;38.33;35.33;;;;;17.64;100.00;101065.28;6199605;23;45044;-88
2022/06/04 01:43:27;;;;;;;;;38.50;32.50;;;;;17.63;100.00;101076.16;6196991;23;44728;-88
2022/06/04 01:45:57;;;;;;;;;36.25;33.75;;;;;17.59;100.00;101072.06;6170689;23;44855;-89
2022/06/04 01:48:25;;;;;;;;;34.25;32.00;;;;;17.61;100.00;101078.16;6193476;23;45234;-90
2022/06/04 01:50:59;;;;;;;;;38.33;33.67;;;;;17.58;100.00;101071.22;6185657;23;45429;-88
2022/06/04 01:53:30;;;;;;;;;37.00;32.50;;;;;17.59;100.00;101078.28;6187931;23;44761;-89
2022/06/04 01:56:04;;;;;;;;;41.67;36.67;;;;;17.56;100.00;101067.00;6162259;23;45247;-88
2022/06/04 01:58:54;;;;;;;;;35.75;33.50;;;;;17.55;100.00;101068.84;6164624;23;45433;-89
2022/06/04 02:01:24;;;;;;;;;43.67;36.00;;;;;17.50;100.00;101046.88;6196848;23;44660;-89
2022/06/04 02:04:10;;;;;;;;;42.33;38.67;;;;;17.47;100.00;101048.03;6280902;22;44681;-90
2022/06/04 02:07:29;;;;;;;;;45.33;39.00;;;;;17.48;100.00;101055.09;6327905;22;45137;-88
2022/06/04 02:09:36;;;;;;;;;37.75;33.50;;;;;17.47;100.00;101055.25;6318257;22;45050;-86
2022/06/04 02:12:04;;;;;;;;;39.33;36.67;;;;;17.44;100.00;101063.56;6309821;22;45321;-85
2022/06/04 02:14:30;;;;;;;;;37.67;36.00;;;;;17.42;100.00;101057.50;6311026;22;44741;-85
2022/06/04 02:17:04;;;;;;;;;39.00;36.33;;;;;17.41;100.00;101066.53;6315686;22;45421;-87
2022/06/04 02:19:29;;;;;;;;;46.67;36.67;;;;;17.43;100.00;101065.41;6315245;22;46826;-86
2022/06/04 02:21:55;;;;;;;;;43.00;36.00;;;;;17.44;100.00;101060.88;6321059;22;44716;-87
2022/06/04 02:24:20;;;;;;;;;45.00;39.67;;;;;17.43;100.00;101070.78;6324926;22;45141;-89
2022/06/04 02:26:46;;;;;;;;;40.50;36.50;;;;;17.43;100.00;101073.47;6302018;22;44990;-89
2022/06/04 02:29:12;;;;;;;;;35.00;33.75;;;;;17.42;100.00;101066.41;6300459;22;45020;-89
2022/06/04 02:31:49;;;;;;;;;34.75;31.50;;;;;17.44;100.00;101080.53;6300738;22;44535;-88
2022/06/04 02:34:20;;;;;;;;;37.25;33.50;;;;;17.46;100.00;101073.19;6330335;22;44661;-88
2022/06/04 02:37:06;;;;;;;;;33.75;32.00;;;;;17.49;100.00;101077.41;6304139;22;44849;-89
2022/06/04 02:39:40;;;;;;;;;34.25;31.50;;;;;17.51;100.00;101075.47;6300548;22;45063;-88
2022/06/04 02:42:25;;;;;;;;;31.50;31.50;;;;;17.53;100.00;101062.72;6302474;22;44527;-87
2022/06/04 02:45:02;;;;;;;;;29.50;27.00;;;;;17.53;100.00;101053.81;6304283;22;44614;-89
2022/06/04 02:47:38;;;;;;;;;30.25;28.50;;;;;17.59;100.00;101050.56;6330522;22;44595;-86
2022/06/04 02:50:16;;;;;;;;;36.00;34.00;;;;;17.62;100.00;101058.38;6331046;22;45174;-86
2022/06/04 02:52:43;;;;;;;;;31.00;26.20;;;;;17.62;100.00;101047.63;6331723;22;44668;-89
2022/06/04 02:55:15;;;;;;;;;30.25;28.00;;;;;17.63;100.00;101055.53;6332154;22;44629;-88
2022/06/04 02:57:46;;;;;;;;;27.00;27.00;;;;;17.60;100.00;101044.19;6331945;22;44740;-87
2022/06/04 03:00:14;;;;;;;;;31.25;29.50;;;;;17.61;100.00;101044.09;6318341;22;45353;-89
2022/06/04 03:02:40;;;;;;;;;29.25;26.00;;;;;17.62;100.00;101032.34;6267173;22;44583;-88
2022/06/04 03:05:16;;;;;;;;;26.75;26.75;;;;;17.63;100.00;101041.25;6299837;22;44749;-89
2022/06/04 03:07:46;;;;;;;;;40.25;29.25;;;;;17.65;100.00;101047.34;6325833;22;44819;-89
2022/06/04 03:10:26;;;;;;;;;32.00;31.75;;;;;17.66;100.00;101057.94;6322118;22;46784;-87
2022/06/04 03:12:52;;;;;;;;;28.25;28.25;;;;;17.67;100.00;101054.25;6288837;22;44751;-89
2022/06/04 03:15:44;;;;;;;;;30.75;28.25;;;;;17.69;100.00;101056.78;6313163;22;44816;-90
2022/06/04 03:18:10;;;;;;;;;36.50;31.00;;;;;17.70;100.00;101045.94;6309972;22;44825;-90
2022/06/04 03:20:36;;;;;;;;;35.50;31.75;;;;;17.70;100.00;101043.25;6287960;22;45084;-90
2022/06/04 03:23:01;;;;;;;;;31.50;28.75;;;;;17.71;100.00;101046.78;6325170;22;44763;-88
2022/06/04 03:25:28;;;;;;;;;24.50;23.75;;;;;17.73;100.00;101031.38;6331005;22;44623;-88
2022/06/04 03:27:53;;;;;;;;;30.75;28.00;;;;;17.72;100.00;101025.13;6328153;22;44638;-90
2022/06/04 03:30:19;;;;;;;;;29.75;26.75;;;;;17.72;100.00;101025.13;6326885;22;45084;-90
2022/06/04 03:32:44;;;;;;;;;26.75;25.00;;;;;17.71;100.00;101012.69;6325242;22;44783;-86
2022/06/04 03:35:13;;;;;;;;;25.00;25.00;;;;;17.71;100.00;101026.13;6329191;22;44771;-91
2022/06/04 03:37:39;;;;;;;;;32.75;29.00;;;;;17.72;100.00;101032.34;6334834;22;44808;-90
2022/06/04 03:40:07;;;;;;;;;29.25;29.25;;;;;17.72;100.00;101037.72;6303458;22;46664;-93
2022/06/04 03:42:32;;;;;;;;;25.50;23.00;;;;;17.72;100.00;101037.72;6325296;22;44720;-91
2022/06/04 03:45:02;;;;;;;;;29.00;27.25;;;;;17.70;100.00;101035.19;6268578;22;45290;-90
2022/06/04 03:47:28;;;;;;;;;31.25;27.25;;;;;17.69;100.00;101024.56;6320064;22;45194;-90
2022/06/04 03:49:55;;;;;;;;;30.75;29.00;;;;;17.67;100.00;101007.72;6324666;22;45200;-90
2022/06/04 03:52:23;;;;;;;;;28.75;23.00;;;;;17.63;100.00;101003.63;6294294;22;44863;-90
2022/06/04 03:54:56;;;;;;;;;24.25;22.00;;;;;17.62;100.00;101010.84;6327568;22;45230;-90
2022/06/04 03:57:41;;;;;;;;;32.00;26.50;;;;;17.57;100.00;101023.84;6297341;22;44844;-91
2022/06/04 04:00:27;;;;;;;;;27.75;25.50;;;;;17.56;100.00;101035.59;6304388;22;46251;-91
2022/06/04 04:02:58;;;;;;;;;27.75;26.25;;;;;17.52;100.00;101044.06;6335822;22;44672;-92
2022/06/04 04:05:36;;;;;;;;;33.25;26.25;;;;;17.48;100.00;101060.47;6308337;22;44790;-88
2022/06/04 04:08:04;;;;;;;;;28.00;26.75;;;;;17.46;100.00;101062.44;6334388;22;44723;-91
2022/06/04 04:10:31;;;;;;;;;26.25;26.25;;;;;17.46;100.00;101062.44;6322528;22;45184;-91
2022/06/04 04:12:58;;;;;;;;;27.60;23.40;;;;;17.47;100.00;101072.19;6291120;22;44671;-94
2022/06/04 04:15:24;;;;;;;;;30.50;25.00;;;;;17.48;100.00;101075.72;6295041;22;44699;-95
2022/06/04 04:17:50;;;;;;;;;24.50;24.25;;;;;17.45;100.00;101076.00;6319460;22;44756;-92
2022/06/04 04:20:22;;;;;;;;;24.75;22.50;;;;;17.45;100.00;101060.75;6326589;22;45396;-92
2022/06/04 04:22:48;;;;;;;;;29.40;26.40;;;;;17.44;100.00;101071.63;6300630;22;44664;-91
2022/06/04 04:25:18;;;;;;;;;22.75;22.25;;;;;17.43;100.00;101094.94;6298613;22;45097;-91
2022/06/04 04:27:45;;;;;;;;;32.00;26.50;;;;;17.44;100.00;101126.19;6326018;22;44796;-92
2022/06/04 04:30:18;;;;;;;;;23.50;23.50;;;;;17.43;100.00;101145.13;6331712;22;45155;-89
2022/06/04 04:32:44;;;;;;;;;26.75;24.00;;;;;17.40;100.00;101135.50;6301146;22;44706;-92
2022/06/04 04:35:14;;;;;;;;;25.00;25.00;;;;;17.40;100.00;101126.59;6302416;22;44761;-90
2022/06/04 04:37:42;;;;;;;;;27.25;24.25;;;;;17.45;100.00;101135.09;6328402;22;44598;-91
2022/06/04 04:40:11;;;;;;;;;23.50;23.50;;;;;17.51;100.00;101150.69;6299659;22;45270;-89
2022/06/04 04:42:37;;;;;;;;;24.60;24.20;;;;;17.54;100.00;101147.69;6326194;22;45179;-90
2022/06/04 04:45:07;;;;;;;;;27.75;25.25;;;;;17.56;100.00;101148.44;6320505;22;44634;-92
2022/06/04 04:47:34;;;;;;;;;26.50;26.50;;;;;17.60;100.00;101165.09;6322048;22;44848;-90
2022/06/04 04:50:02;;;;;;;;;25.50;22.25;;;;;17.59;100.00;101158.88;6331776;22;46639;-91
2022/06/04 04:52:29;;;;;;;;;21.00;21.00;;;;;17.65;100.00;101162.88;6275038;22;44627;-91
2022/06/04 04:54:55;;;;;;;;;27.75;25.75;;;;;17.67;100.00;101159.06;6291986;22;44630;-89
2022/06/04 04:57:20;;;;;;;;;25.75;25.25;;;;;17.66;100.00;101148.44;6322629;22;44775;-90
2022/06/04 04:59:45;;;;;;;;;27.00;24.50;;;;;17.69;100.00;101158.91;6289689;22;45219;-91
2022/06/04 05:02:11;;;;;;;;;21.75;21.75;;;;;17.72;100.00;101156.81;6285230;22;44785;-91
2022/06/04 05:04:36;;;;;;;;;25.75;24.25;;;;;17.67;100.00;101140.25;6288169;22;44765;-91
2022/06/04 05:07:02;;;;;;;;;23.25;22.00;;;;;17.68;100.00;101138.41;6318807;22;44925;-92
2022/06/04 05:09:28;;;;;;;;;27.50;25.50;;;;;17.71;100.00;101152.41;6310361;22;44974;-92
2022/06/04 05:11:53;;;;;;;;;27.75;27.25;;;;;17.76;100.00;101135.91;6286376;22;45376;-90
2022/06/04 05:14:20;;;;;;;;;27.75;24.75;;;;;17.73;100.00;101110.16;6317776;22;44722;-92
2022/06/04 05:16:46;;;;;;;;;24.25;22.25;;;;;17.79;100.00;101122.19;6320946;22;44836;-90
2022/06/04 05:19:13;;;;;;;;;25.75;24.00;;;;;17.81;100.00;101116.69;6298820;22;45034;-90
2022/06/04 05:21:50;;;;;;;;;32.00;25.50;;;;;17.86;100.00;101107.19;6299781;22;44639;-91
2022/06/04 05:25:08;;;;;;;;;27.25;23.25;;;;;17.85;100.00;101105.50;6319880;22;45226;-91
2022/06/04 05:27:34;;;;;;;;;24.75;23.50;;;;;17.87;100.00;101111.59;6313127;22;45217;-92
2022/06/04 05:30:00;;;;;;;;;29.00;26.75;;;;;17.91;100.00;101113.00;6283718;22;46522;-92
2022/06/04 05:32:25;;;;;;;;;22.75;20.00;;;;;17.96;100.00;101108.06;6285474;22;44822;-88
2022/06/04 05:34:50;;;;;;;;;23.25;20.25;;;;;18.03;100.00;101094.03;6315272;22;44570;-89
2022/06/04 05:37:16;;;;;;;;;27.25;22.00;;;;;18.10;100.00;101077.19;6317567;22;44797;-87
2022/06/04 05:39:41;;;;;;;;;26.50;22.00;;;;;18.18;100.00;101077.34;6327556;22;45519;-88
2022/06/04 05:42:07;;;;;;;;;24.75;22.25;;;;;18.24;100.00;101076.75;6321532;22;44655;-84
2022/06/04 05:44:33;;;;;;;;;21.25;19.25;;;;;18.33;100.00;101084.97;6324789;22;44756;-85
2022/06/04 05:46:58;;;;;;;;;23.00;19.00;;;;;18.41;100.00;101085.91;6325270;22;45367;-85
2022/06/04 05:49:24;;;;;;;;;28.25;21.50;;;;;18.54;100.00;101092.84;6286534;22;45784;-85
2022/06/04 05:51:51;;;;;;;;;22.75;21.00;;;;;18.68;100.00;101087.88;6317981;22;44713;-88
2022/06/04 05:54:17;;;;;;;;;28.20;24.80;;;;;18.87;100.00;101088.81;6266635;22;44643;-88
2022/06/04 05:56:46;;;;;;;;;22.25;22.25;;;;;18.98;100.00;101085.91;6293902;22;44773;-88
2022/06/04 05:59:14;;;;;;;;;22.50;22.50;;;;;19.11;100.00;101091.81;6290462;22;45109;-87
2022/06/04 06:01:42;;;;;;;;;21.20;19.40;;;;;19.16;100.00;101111.06;6324322;22;44666;-86
2022/06/04 06:04:09;;;;;;;;;20.20;19.40;;;;;19.13;100.00;101114.03;6326428;22;44686;-88
2022/06/04 06:06:39;;;;;;;;;24.00;24.00;;;;;19.05;100.00;101115.78;6320087;22;44877;-84
2022/06/04 06:09:09;;;;;;;;;22.20;19.40;;;;;18.93;100.00;101115.97;6307071;22;45110;-84
2022/06/04 06:11:34;;;;;;;;;23.00;23.00;;;;;18.89;100.00;101141.50;6308377;22;45175;-84
2022/06/04 06:14:00;;;;;;;;;27.25;27.25;;;;;18.71;100.00;101152.19;6310274;22;44679;-83
2022/06/04 06:16:31;;;;;;;;;26.75;25.25;;;;;18.51;100.00;101182.75;6311927;22;44879;-83
2022/06/04 06:18:58;;;;;;;;;28.75;24.25;;;;;18.42;100.00;101157.59;6303650;22;45263;-84
2022/06/04 06:21:27;;;;;;;;;24.60;21.60;;;;;18.48;100.00;101161.53;6306020;22;45266;-85
2022/06/04 06:23:54;;;;;;;;;26.00;24.75;;;;;18.50;100.00;101207.97;6305997;22;44811;-85
2022/06/04 06:26:23;;;;;;;;;23.50;23.00;;;;;18.52;100.00;101197.94;6305572;22;45510;-83
2022/06/04 06:28:48;;;;;;;;;28.00;27.50;;;;;18.57;100.00;101229.78;6306085;22;45238;-83
2022/06/04 06:31:17;;;;;;;;;25.25;23.75;;;;;18.58;100.00;101237.72;6303614;22;45231;-83
2022/06/04 06:33:43;;;;;;;;;24.20;21.40;;;;;18.58;100.00;101218.88;6276977;22;45311;-82
2022/06/04 06:36:11;;;;;;;;;24.50;22.25;;;;;18.60;100.00;101224.97;6305654;22;44845;-85
2022/06/04 06:38:39;;;;;;;;;29.75;23.75;;;;;18.62;100.00;101227.53;6277351;22;45694;-84
2022/06/04 06:41:05;;;;;;;;;24.80;23.40;;;;;18.61;100.00;101215.88;6309536;22;45245;-84
2022/06/04 06:43:38;;;;;;;;;20.25;18.75;;;;;18.62;100.00;101206.84;6321011;22;45271;-83
2022/06/04 06:46:08;;;;;;;;;26.00;25.00;;;;;18.63;100.00;101208.53;6314770;22;45393;-84
2022/06/04 06:48:35;;;;;;;;;28.25;24.50;;;;;18.65;100.00;101206.53;6310845;22;45333;-84
2022/06/04 06:51:21;;;;;;;;;21.40;21.40;;;;;18.66;100.00;101208.25;6315326;22;45292;-85
2022/06/04 06:53:46;;;;;;;;;25.20;21.80;;;;;18.67;100.00;101214.50;6316921;22;45375;-84
2022/06/04 06:56:17;;;;;;;;;28.00;25.50;;;;;18.68;100.00;101209.00;6314792;22;44791;-82
2022/06/04 06:58:43;;;;;;;;;26.00;24.25;;;;;18.70;100.00;101207.00;6314468;22;45254;-83
2022/06/04 07:01:11;;;;;;;;;23.50;22.50;;;;;18.75;100.00;101195.78;6287970;22;44711;-85
2022/06/04 07:03:38;;;;;;;;;29.00;26.25;;;;;18.81;100.00;101189.84;6311563;22;44768;-83
2022/06/04 07:06:04;;;;;;;;;25.00;24.00;;;;;18.85;100.00;101182.31;6286418;22;44882;-86
2022/06/04 07:08:30;;;;;;;;;23.75;22.25;;;;;18.87;100.00;101175.81;6317174;22;45515;-85
2022/06/04 07:10:55;;;;;;;;;30.25;29.25;;;;;18.94;100.00;101167.97;6296274;22;44764;-87
2022/06/04 07:13:21;;;;;;;;;27.00;20.50;;;;;19.00;100.00;101162.00;6316985;22;44793;-83
2022/06/04 07:15:46;;;;;;;;;23.25;23.25;;;;;19.09;100.00;101153.03;6310258;22;44766;-84
2022/06/04 07:18:13;;;;;;;;;25.25;22.75;;;;;19.16;100.00;101164.94;6283172;22;45580;-84
2022/06/04 07:20:42;;;;;;;;;26.20;21.40;;;;;19.26;100.00;101168.44;6283713;22;44740;-86
2022/06/04 07:23:08;;;;;;;;;33.25;28.00;;;;;19.36;100.00;101165.69;6280698;22;45247;-84
2022/06/04 07:25:34;;;;;;;;;27.50;24.00;;;;;19.46;100.00;101166.50;6309177;22;45548;-84
2022/06/04 07:28:00;;;;;;;;;27.50;26.75;;;;;19.57;100.00;101169.97;6310421;22;45674;-83
2022/06/04 07:30:26;;;;;;;;;30.00;26.00;;;;;19.65;100.00;101168.25;6279362;22;45223;-82
2022/06/04 07:32:52;;;;;;;;;24.75;22.75;;;;;19.81;100.00;101182.91;6279458;22;45326;-87
2022/06/04 07:35:20;;;;;;;;;32.25;31.25;;;;;20.19;100.00;101184.50;6310136;22;44848;-87
2022/06/04 07:37:46;;;;;;;;;32.00;32.00;;;;;20.66;100.00;101179.69;6282490;22;45503;-88
2022/06/04 07:40:12;;;;;;;;;26.50;25.00;;;;;20.90;100.00;101170.06;6289495;22;44709;-87
2022/06/04 07:42:38;;;;;;;;;33.75;32.00;;;;;20.96;100.00;101161.31;6312245;22;45250;-87
2022/06/04 07:45:04;;;;;;;;;26.25;25.00;;;;;21.02;100.00;101176.88;6311881;22;45353;-88
2022/06/04 07:47:30;;;;;;;;;31.75;28.50;;;;;21.00;100.00;101181.63;6310723;22;45121;-88
2022/06/04 07:49:56;;;;;;;;;27.25;25.75;;;;;21.11;100.00;101185.88;6314915;22;45123;-87
2022/06/04 07:52:22;;;;;;;;;24.60;22.00;;;;;21.57;100.00;101181.09;6318194;22;44605;-87
2022/06/04 07:54:47;;;;;;;;;33.75;29.25;;;;;22.01;100.00;101170.88;6319893;22;45088;-89
2022/06/04 07:57:13;;;;;;;;;24.25;23.50;;;;;22.50;100.00;101152.84;6290073;22;46420;-88
2022/06/04 07:59:39;;;;;;;;;24.60;23.80;;;;;22.76;100.00;101162.63;6291091;22;45183;-88
2022/06/04 08:02:05;;;;;;;;;25.00;25.00;;;;;23.10;100.00;101154.25;6314477;22;44669;-87
2022/06/04 08:04:30;;;;;;;;;23.50;21.75;;;;;23.43;100.00;101144.13;6313601;22;45592;-89
2022/06/04 08:06:56;;;;;;;;;28.50;25.25;;;;;23.62;100.00;101151.00;6316997;22;45524;-88
2022/06/04 08:09:22;;;;;;;;;20.80;19.40;;;;;23.66;100.00;101149.66;6318724;22;44806;-88
2022/06/04 08:11:48;;;;;;;;;19.50;17.00;;;;;23.62;100.00;101147.44;6284089;22;45191;-88
2022/06/04 08:14:17;;;;;;;;;20.00;19.00;;;;;23.61;100.00;101133.03;6307261;22;45515;-84
2022/06/04 08:16:48;;;;;;;;;26.25;26.25;;;;;23.86;100.00;101133.75;6278394;22;46550;-85
2022/06/04 08:19:16;;;;;;;;;24.40;21.40;;;;;24.21;100.00;101129.59;6306516;22;45415;-83
2022/06/04 08:21:41;;;;;;;;;26.60;24.00;;;;;24.36;100.00;101129.66;6278324;22;44651;-83
2022/06/04 08:24:08;;;;;;;;;27.00;25.25;;;;;24.45;100.00;101138.59;6306868;22;44653;-84
2022/06/04 08:26:34;;;;;;;;;34.50;27.75;;;;;24.21;100.00;101137.72;6306706;22;45983;-85
2022/06/04 08:29:00;;;;;;;;;28.75;24.75;;;;;24.00;100.00;101143.00;6306608;22;44984;-85
2022/06/04 08:31:25;;;;;;;;;25.00;23.50;;;;;23.92;100.00;101151.19;6304748;22;44652;-84
2022/06/04 08:33:51;;;;;;;;;35.00;31.50;;;;;23.90;100.00;101148.66;6307612;22;44833;-84
2022/06/04 08:36:16;;;;;;;;;26.50;25.50;;;;;23.83;100.00;101145.81;6311829;22;45108;-84
2022/06/04 08:38:43;;;;;;;;;26.75;25.00;;;;;23.80;100.00;101139.91;6312356;22;45246;-84
2022/06/04 08:41:32;;;;;;;;;27.80;24.60;;;;;23.74;100.00;101141.47;6278372;22;44788;-84
2022/06/04 08:44:22;;;;;;;;;29.00;28.00;;;;;23.71;100.00;101140.97;6307289;22;44902;-84
2022/06/04 08:46:52;;;;;;;;;25.60;23.40;;;;;23.59;100.00;101146.78;6293434;22;45368;-84
2022/06/04 08:49:32;;;;;;;;;24.00;24.00;;;;;23.51;100.00;101143.28;6306139;22;45308;-84
2022/06/04 08:52:00;;;;;;;;;25.20;23.40;;;;;23.54;100.00;101148.31;6307290;22;44787;-83
2022/06/04 09:00:19;;;;;;;;;25.40;22.20;;;;;23.84;100.00;101162.97;6316350;22;45179;-88
2022/06/04 09:03:38;;;;;;;;;18.20;18.20;;;;;23.76;100.00;101163.84;6318747;22;44701;-87
2022/06/04 09:06:14;;;;;;;;;25.25;23.50;;;;;23.84;100.00;101162.97;6200163;23;44752;-88
2022/06/04 09:08:48;;;;;;;;;23.60;22.40;;;;;23.91;100.00;101160.38;6187048;23;44948;-88
2022/06/04 09:11:19;;;;;;;;;20.40;19.80;;;;;23.80;100.00;101165.19;6196945;23;44751;-87
2022/06/04 09:14:18;;;;;;;;;22.00;22.00;;;;;23.82;100.00;101168.53;6169742;23;44660;-90
2022/06/04 09:16:50;;;;;;;;;25.00;25.00;;;;;23.81;100.00;101175.00;6190969;23;44823;-88
2022/06/04 09:19:24;;;;;;;;;26.20;23.20;;;;;23.69;100.00;101165.59;6192054;23;45090;-87
2022/06/04 09:21:49;;;;;;;;;25.00;25.00;;;;;23.63;100.00;101174.38;6170824;23;44707;-88
2022/06/04 09:24:15;;;;;;;;;21.50;21.50;;;;;23.59;100.00;101176.63;6193544;23;44816;-88
2022/06/04 09:26:59;;;;;;;;;25.75;24.75;;;;;23.64;100.00;101170.69;6169407;23;45281;-87
2022/06/04 09:29:43;;;;;;;;;26.50;25.50;;;;;23.81;100.00;101176.88;6205034;23;46647;-86
2022/06/04 09:32:45;;;;;;;;;25.40;24.00;;;;;23.96;100.00;101177.78;6179813;23;44715;-84
2022/06/04 09:35:21;;;;;;;;;25.40;24.20;;;;;23.95;100.00;101169.84;6199779;23;44748;-83
2022/06/04 09:37:49;;;;;;;;;23.25;20.25;;;;;23.88;100.00;101175.13;6194677;23;44831;-83
2022/06/04 09:40:30;;;;;;;;;25.50;25.50;;;;;23.97;100.00;101176.75;6204286;22;45184;-84
2022/06/04 09:43:11;;;;;;;;;21.60;21.60;;;;;24.04;100.00;101171.47;6320741;22;44717;-87
2022/06/04 09:45:38;;;;;;;;;23.40;22.20;;;;;24.16;100.00;101170.03;6302383;22;44767;-86
2022/06/04 09:48:18;;;;;;;;;22.00;22.00;;;;;24.44;100.00;101169.50;6324729;22;44834;-86
2022/06/04 09:50:53;;;;;;;;;27.25;24.50;;;;;24.53;100.00;101166.53;6317695;22;45181;-86
2022/06/04 09:53:23;;;;;;;;;22.60;22.60;;;;;24.49;100.00;101172.50;6321474;22;44578;-87
2022/06/04 09:55:54;;;;;;;;;24.00;20.60;;;;;24.47;100.00;101161.84;6321757;22;45158;-87
2022/06/04 09:58:33;;;;;;;;;20.80;19.40;;;;;24.58;100.00;101161.38;6325613;22;44895;-86
2022/06/04 10:01:03;;;;;;;;;21.20;20.20;;;;;24.61;100.00;101165.59;6326331;22;45074;-84
2022/06/04 10:03:31;;;;;;;;;17.80;17.00;;;;;24.83;100.00;101163.88;6318872;22;44643;-83
2022/06/04 10:06:10;;;;;;;;;23.80;23.00;;;;;25.01;100.00;101168.94;6314509;22;44703;-82
2022/06/04 10:11:24;;;;;;;;;21.20;20.00;;;;;25.22;100.00;101168.22;6315671;22;44838;-82
2022/06/04 10:13:53;;;;;;;;;17.80;16.40;;;;;25.23;100.00;101168.03;6315768;22;45182;-84
2022/06/04 10:16:37;;;;;;;;;18.80;17.20;;;;;25.31;100.00;101164.38;6285218;22;44712;-85
2022/06/04 10:19:13;;;;;;;;;18.20;17.00;;;;;25.34;100.00;101166.72;6308295;22;45230;-84
2022/06/04 10:21:41;;;;;;;;;22.80;19.00;;;;;25.44;100.00;101171.88;6311543;22;45240;-88
2022/06/04 10:24:22;;;;;;;;;21.80;20.00;;;;;25.30;100.00;101165.41;6314924;22;45100;-88
2022/06/04 10:26:54;;;;;;;;;15.40;15.40;;;;;25.43;100.00;101162.00;6324594;22;44684;-87
2022/06/04 10:29:40;;;;;;;;;19.40;17.80;;;;;25.55;100.00;101153.19;6326398;22;44836;-88
2022/06/04 10:32:27;;;;;;;;;16.40;14.80;;;;;25.52;100.00;101158.16;6319473;22;45307;-88
2022/06/04 10:35:25;;;;;;;;;20.40;17.20;;;;;25.58;100.00;101154.69;6320332;22;44736;-88
2022/06/04 10:38:17;;;;;;;;;20.00;18.80;;;;;25.48;100.00;101152.28;6315822;22;44776;-88
2022/06/04 10:40:57;;;;;;;;;15.80;15.80;;;;;25.67;100.00;101156.25;6314855;22;44810;-88
2022/06/04 10:44:00;;;;;;;;;18.20;15.20;;;;;25.79;100.00;101148.47;6313102;22;45288;-88
2022/06/04 10:46:46;;;;;;;;;18.40;14.60;;;;;26.03;100.00;101159.00;6312241;22;44810;-89
2022/06/04 10:49:43;;;;;;;;;13.40;13.40;;;;;26.23;100.00;101153.72;6286924;22;44745;-89
2022/06/04 10:52:42;;;;;;;;;14.80;13.60;;;;;26.35;100.00;101151.31;6313525;22;44789;-88
2022/06/04 10:55:22;;;;;;;;;11.00;10.60;;;;;26.38;100.00;101140.03;6323786;22;45038;-89
2022/06/04 10:58:21;;;;;;;;;12.80;12.80;;;;;26.42;100.00;101135.88;6319986;22;44562;-88
2022/06/04 11:01:14;;;;;;;;;18.40;14.20;;;;;26.53;100.00;101139.97;6313857;22;44781;-86
2022/06/04 11:04:04;;;;;;;;;13.20;13.20;;;;;26.59;100.00;101137.31;6322623;22;44761;-89
2022/06/04 11:06:37;;;;;;;;;14.20;14.20;;;;;26.73;100.00;101137.38;6314616;22;45226;-87
2022/06/04 11:09:14;;;;;;;;;14.20;13.40;;;;;26.87;100.00;101133.72;6320326;22;45292;-87
2022/06/04 11:11:46;;;;;;;;;8.80;8.80;;;;;26.71;100.00;101131.31;6314687;22;44731;-87
2022/06/04 11:14:37;;;;;;;;;14.80;14.80;;;;;26.63;100.00;101133.13;6320202;22;44708;-88
2022/06/04 11:17:21;;;;;;;;;11.80;11.80;;;;;26.79;100.00;101139.34;6271103;22;45380;-89
2022/06/04 11:20:22;;;;;;;;;16.20;14.00;;;;;26.98;100.00;101125.00;6294194;22;44650;-87
2022/06/04 11:22:56;;;;;;;;;12.00;12.00;;;;;27.21;100.00;101121.13;6312940;22;44777;-89
2022/06/04 11:25:34;;;;;;;;;10.00;10.00;;;;;27.25;100.00;101119.69;6288093;22;44823;-89
2022/06/04 11:28:03;;;;;;;;;13.20;11.40;;;;;27.14;100.00;101119.22;6282027;22;45153;-88
2022/06/04 11:30:55;;;;;;;;;14.60;12.40;;;;;27.06;100.00;101113.91;6287443;22;44657;-87
2022/06/04 11:33:29;;;;;;;;;10.20;10.20;;;;;27.14;100.00;101116.50;6316970;22;44717;-88
2022/06/04 11:36:41;;;;;;;;;10.20;10.20;;;;;27.34;100.00;101115.75;6319112;22;44730;-89
2022/06/04 11:39:09;;;;;;;;;10.60;10.60;;;;;27.63;100.00;101109.97;6190984;23;46029;-88
2022/06/04 11:42:00;;;;;;;;;13.20;11.80;;;;;27.73;100.00;101109.59;6196155;23;44789;-86
2022/06/04 11:44:54;;;;;;;;;11.40;10.00;;;;;27.99;98.90;101111.53;6205374;22;44652;-87